Newton, Kansas
Current Conditions -  °F | °C
As of 6:35 PM on Sunday 21 Dec 2014 (Local Time) from KEWK Reporting Station
Overcast Overcast  
Wind Chill: 35°   Ceiling: 600
Heat Index: 43°   Visibility: 5mi
Dew Point: 37°   Wind: 15mph
Humidity: 81%   Direction: 170°S
Pressure: 29.7"   Gusts: 24mph
Location:  38.05°N, 97.34°W
Report Text: KEWK 220035Z AUTO 17013G21KT 5SM OVC006 06/03 A2970 RMK AO1
Loading
Personal Weather Stations






























Interactive Weather Map New forecast layout! Learn more

10-Day Weather Forecast

Advertisements
Track Severe Weather on mobile